createdAt,value
2022-09-12T00:01:06.915Z,100.00
2022-09-12T00:03:36.894Z,100.00
2022-09-12T00:06:10.269Z,100.00
2022-09-12T00:08:41.390Z,100.00
2022-09-12T00:11:14.238Z,100.00
2022-09-12T00:13:47.106Z,100.00
2022-09-12T00:16:24.196Z,100.00
2022-09-12T00:18:55.337Z,100.00
2022-09-12T00:21:25.524Z,100.00
2022-09-12T00:23:54.745Z,100.00
2022-09-12T00:26:25.292Z,100.00
2022-09-12T00:28:58.083Z,100.00
2022-09-12T00:31:31.523Z,100.00
2022-09-12T00:34:01.987Z,100.00
2022-09-12T00:36:36.722Z,100.00
2022-09-12T00:39:08.068Z,100.00
2022-09-12T00:41:41.278Z,100.00
2022-09-12T00:44:48.064Z,100.00
2022-09-12T00:47:25.963Z,100.00
2022-09-12T00:50:01.571Z,100.00
2022-09-12T00:52:37.789Z,100.00
2022-09-12T00:55:11.504Z,100.00
2022-09-12T00:57:47.871Z,100.00
2022-09-12T01:00:21.021Z,100.00
2022-09-12T01:02:57.948Z,100.00
2022-09-12T01:05:32.836Z,100.00
2022-09-12T01:08:05.558Z,100.00
2022-09-12T01:10:37.473Z,100.00
2022-09-12T01:13:10.319Z,100.00
2022-09-12T01:15:42.361Z,100.00
2022-09-12T01:18:20.533Z,100.00
2022-09-12T01:21:01.817Z,100.00
2022-09-12T01:24:04.616Z,100.00
2022-09-12T01:26:54.012Z,100.00
2022-09-12T01:29:47.457Z,100.00
2022-09-12T01:32:27.336Z,100.00
2022-09-12T01:35:07.906Z,100.00
2022-09-12T01:37:44.466Z,100.00
2022-09-12T01:40:23.449Z,100.00
2022-09-12T01:43:04.507Z,100.00
2022-09-12T01:45:42.738Z,100.00
2022-09-12T01:48:18.677Z,100.00
2022-09-12T01:50:55.387Z,100.00
2022-09-12T01:53:28.928Z,100.00
2022-09-12T01:56:07.032Z,100.00
2022-09-12T01:58:46.062Z,100.00
2022-09-12T02:01:32.503Z,100.00
2022-09-12T02:04:16.427Z,100.00
2022-09-12T02:07:00.033Z,100.00
2022-09-12T02:09:37.475Z,100.00
2022-09-12T02:12:16.517Z,100.00
2022-09-12T02:14:52.098Z,100.00
2022-09-12T02:17:29.108Z,100.00
2022-09-12T02:20:06.002Z,100.00
2022-09-12T02:22:42.644Z,100.00
2022-09-12T02:25:15.436Z,100.00
2022-09-12T02:27:54.545Z,100.00
2022-09-12T02:30:27.121Z,100.00
2022-09-12T02:33:05.407Z,100.00
2022-09-12T02:35:48.799Z,100.00
2022-09-12T02:38:31.323Z,100.00
2022-09-12T02:41:05.876Z,100.00
2022-09-12T02:43:47.315Z,100.00
2022-09-12T02:46:27.127Z,100.00
2022-09-12T02:48:59.004Z,100.00
2022-09-12T02:54:58.361Z,100.00
2022-09-12T02:57:26.635Z,100.00
2022-09-12T03:00:02.165Z,100.00
2022-09-12T03:02:41.011Z,100.00
2022-09-12T03:05:27.807Z,100.00
2022-09-12T03:08:22.717Z,100.00
2022-09-12T03:11:14.831Z,100.00
2022-09-12T03:13:57.154Z,100.00
2022-09-12T03:16:37.262Z,100.00
2022-09-12T03:19:13.164Z,100.00
2022-09-12T03:21:56.215Z,100.00
2022-09-12T03:24:33.043Z,100.00
2022-09-12T03:27:13.301Z,100.00
2022-09-12T03:29:43.196Z,100.00
2022-09-12T03:32:13.218Z,100.00
2022-09-12T03:34:42.994Z,100.00
2022-09-12T03:37:11.018Z,100.00
2022-09-12T03:39:41.116Z,100.00
2022-09-12T03:42:12.219Z,100.00
2022-09-12T03:44:40.070Z,100.00
2022-09-12T03:47:11.355Z,100.00
2022-09-12T03:49:41.165Z,100.00
2022-09-12T03:52:09.212Z,100.00
2022-09-12T03:54:39.628Z,100.00
2022-09-12T03:57:11.055Z,100.00
2022-09-12T03:59:38.873Z,100.00
2022-09-12T04:02:06.720Z,100.00
2022-09-12T04:04:38.459Z,100.00
2022-09-12T04:07:06.306Z,100.00
2022-09-12T04:09:34.182Z,100.00
2022-09-12T04:12:06.472Z,100.00
2022-09-12T04:14:35.767Z,100.00
2022-09-12T04:17:03.658Z,100.00
2022-09-12T04:19:33.293Z,100.00
2022-09-12T04:22:01.161Z,100.00
2022-09-12T04:24:28.942Z,100.00
2022-09-12T04:27:04.810Z,100.00
2022-09-12T04:29:36.723Z,100.00
2022-09-12T04:32:06.939Z,100.00
2022-09-12T04:34:37.272Z,100.00
2022-09-12T04:37:05.327Z,100.00
2022-09-12T04:39:37.441Z,100.00
2022-09-12T04:42:05.837Z,100.00
2022-09-12T04:44:33.662Z,100.00
2022-09-12T04:47:06.642Z,100.00
2022-09-12T04:49:35.475Z,100.00
2022-09-12T04:52:03.821Z,100.00
2022-09-12T04:54:36.211Z,100.00
2022-09-12T04:57:04.047Z,100.00
2022-09-12T04:59:34.255Z,100.00
2022-09-12T05:04:47.556Z,100.00
2022-09-12T05:07:17.327Z,100.00
2022-09-12T05:09:45.098Z,100.00
2022-09-12T05:12:14.963Z,100.00
2022-09-12T05:14:44.783Z,100.00
2022-09-12T05:17:13.998Z,100.00
2022-09-12T05:19:43.974Z,100.00
2022-09-12T05:22:13.811Z,100.00
2022-09-12T05:24:47.268Z,100.00
2022-09-12T05:27:22.236Z,100.00
2022-09-12T05:29:52.563Z,100.00
2022-09-12T05:32:21.877Z,100.00
2022-09-12T05:34:51.730Z,100.00
2022-09-12T05:37:19.666Z,100.00
2022-09-12T05:39:47.523Z,100.00
2022-09-12T05:42:17.250Z,100.00
2022-09-12T05:44:47.229Z,100.00
2022-09-12T05:47:17.429Z,100.00
2022-09-12T05:49:50.272Z,100.00
2022-09-12T05:52:20.347Z,100.00
2022-09-12T05:54:49.706Z,100.00
2022-09-12T05:57:19.563Z,100.00
2022-09-12T05:59:49.814Z,100.00
2022-09-12T06:02:19.914Z,100.00
2022-09-12T06:04:51.085Z,100.00
2022-09-12T06:07:19.029Z,100.00
2022-09-12T06:09:48.959Z,100.00
2022-09-12T06:12:18.826Z,100.00
2022-09-12T06:14:46.635Z,100.00
2022-09-12T06:17:18.531Z,100.00
2022-09-12T06:19:46.511Z,100.00
2022-09-12T06:22:15.732Z,100.00
2022-09-12T06:24:47.654Z,100.00
2022-09-12T06:27:15.528Z,100.00
2022-09-12T06:29:43.332Z,100.00
2022-09-12T06:32:15.124Z,100.00
2022-09-12T06:34:43.048Z,100.00
2022-09-12T06:37:11.282Z,100.00
2022-09-12T06:39:44.574Z,100.00
2022-09-12T06:42:13.984Z,100.00
2022-09-12T06:44:44.748Z,100.00
2022-09-12T06:47:14.844Z,100.00
2022-09-12T06:49:42.791Z,100.00
2022-09-12T06:52:12.765Z,100.00
2022-09-12T06:54:44.113Z,100.00
2022-09-12T06:57:11.818Z,100.00
2022-09-12T06:59:42.545Z,100.00
2022-09-12T07:02:12.360Z,100.00
2022-09-12T07:04:40.296Z,91.80
2022-09-12T07:07:08.169Z,89.07
2022-09-12T07:09:36.159Z,93.25
2022-09-12T07:12:06.258Z,91.44
2022-09-12T07:14:36.244Z,93.36
2022-09-12T07:17:06.045Z,91.37
2022-09-12T07:19:36.071Z,92.49
2022-09-12T07:22:09.224Z,90.63
2022-09-12T07:24:40.168Z,87.67
2022-09-12T07:27:10.005Z,87.74
2022-09-12T07:29:39.692Z,91.57
2022-09-12T07:32:09.884Z,90.08
2022-09-12T07:34:39.813Z,91.14
2022-09-12T07:37:09.555Z,91.20
2022-09-12T07:39:37.946Z,90.02
2022-09-12T07:42:07.060Z,90.20
2022-09-12T07:44:38.089Z,93.91
2022-09-12T07:54:47.469Z,89.69
2022-09-12T07:57:15.850Z,88.10
2022-09-12T07:59:53.038Z,88.08
2022-09-12T08:02:21.563Z,85.07
2022-09-12T08:04:51.510Z,81.59
2022-09-12T08:07:21.490Z,78.08
2022-09-12T08:09:51.258Z,78.54
2022-09-12T08:12:20.300Z,82.93
2022-09-12T08:14:51.264Z,79.88
2022-09-12T08:17:19.177Z,78.99
2022-09-12T08:19:47.582Z,79.73
2022-09-12T08:22:23.939Z,76.91
2022-09-12T08:24:51.865Z,78.37
2022-09-12T08:27:21.905Z,75.97
2022-09-12T08:29:52.932Z,70.13
2022-09-12T08:32:20.713Z,69.06
2022-09-12T08:34:50.558Z,68.79
2022-09-12T08:37:20.272Z,72.71
2022-09-12T08:39:48.108Z,74.23
2022-09-12T08:42:29.556Z,69.27
2022-09-12T08:45:10.286Z,70.73
2022-09-12T08:47:44.650Z,72.39
2022-09-12T08:50:17.748Z,68.85
2022-09-12T08:52:55.790Z,68.04
2022-09-12T08:55:34.997Z,69.12
2022-09-12T08:58:16.253Z,69.78
2022-09-12T09:00:52.646Z,66.21
2022-09-12T09:03:38.962Z,69.36
2022-09-12T09:06:18.297Z,67.51
2022-09-12T09:09:03.858Z,65.23
2022-09-12T09:12:01.464Z,68.29
2022-09-12T09:14:50.885Z,68.63
2022-09-12T09:17:28.590Z,68.81
2022-09-12T09:20:06.969Z,66.56
2022-09-12T09:22:42.417Z,65.24
2022-09-12T09:25:22.906Z,66.99
2022-09-12T09:27:58.413Z,67.34
2022-09-12T09:30:30.885Z,64.13
2022-09-12T09:33:04.088Z,64.95
2022-09-12T09:35:46.837Z,66.46
2022-09-12T09:38:24.878Z,63.93
2022-09-12T09:46:21.465Z,61.38
2022-09-12T09:48:52.194Z,61.39
2022-09-12T09:51:36.754Z,63.73
2022-09-12T09:54:14.991Z,60.47
2022-09-12T09:56:50.875Z,62.16
2022-09-12T09:59:22.686Z,58.89
2022-09-12T10:01:57.904Z,62.86
2022-09-12T10:04:29.977Z,61.71
2022-09-12T10:07:02.257Z,60.91
2022-09-12T10:09:35.559Z,62.82
2022-09-12T10:12:24.916Z,60.23
2022-09-12T10:15:02.831Z,61.32
2022-09-12T10:17:45.001Z,59.88
2022-09-12T10:20:35.001Z,59.75
2022-09-12T10:23:11.297Z,59.33
2022-09-12T10:25:40.722Z,60.65
2022-09-12T10:28:43.559Z,59.24
2022-09-12T10:31:17.015Z,53.88
2022-09-12T10:33:55.005Z,56.43
2022-09-12T10:36:27.804Z,58.76
2022-09-12T10:39:04.283Z,60.53
2022-09-12T10:41:39.446Z,61.52
2022-09-12T10:44:18.741Z,61.56
2022-09-12T10:46:48.603Z,61.24
2022-09-12T10:49:26.708Z,57.71
2022-09-12T10:51:57.343Z,55.27
2022-09-12T10:54:29.733Z,55.09
2022-09-12T10:57:30.286Z,55.52
2022-09-12T11:00:10.648Z,56.03
2022-09-12T11:02:50.846Z,57.94
2022-09-12T11:05:39.392Z,59.82
2022-09-12T11:08:43.237Z,59.60
2022-09-12T11:15:10.108Z,62.18
2022-09-12T11:17:51.178Z,59.64
2022-09-12T11:20:43.548Z,61.72
2022-09-12T11:24:09.288Z,59.79
2022-09-12T11:27:04.310Z,60.39
2022-09-12T11:30:27.744Z,57.69
2022-09-12T11:33:30.012Z,59.55
2022-09-12T11:37:01.569Z,57.46
2022-09-12T11:39:43.193Z,56.25
2022-09-12T11:46:21.987Z,59.08
2022-09-12T11:48:56.174Z,59.35
2022-09-12T11:51:54.293Z,57.57
2022-09-12T11:54:28.316Z,58.15
2022-09-12T11:57:29.640Z,54.49
2022-09-12T12:00:23.363Z,52.32
2022-09-12T12:03:16.079Z,51.14
2022-09-12T12:05:53.917Z,55.94
2022-09-12T12:08:28.732Z,54.27
2022-09-12T12:11:00.713Z,55.27
2022-09-12T12:13:35.775Z,56.00
2022-09-12T12:16:17.831Z,55.05
2022-09-12T12:18:54.025Z,53.16
2022-09-12T12:21:43.163Z,53.53
2022-09-12T12:24:16.661Z,54.06
2022-09-12T12:27:02.265Z,55.70
2022-09-12T12:34:51.434Z,53.16
2022-09-12T12:38:27.956Z,51.82
2022-09-12T12:57:40.616Z,48.89
2022-09-12T13:00:33.367Z,53.31
2022-09-12T13:03:23.405Z,52.76
2022-09-12T13:06:04.513Z,53.04
2022-09-12T13:08:49.589Z,51.83
2022-09-12T13:18:52.269Z,49.78
2022-09-12T13:24:54.290Z,46.67
2022-09-12T13:27:26.185Z,45.71
2022-09-12T13:30:11.070Z,48.80
2022-09-12T13:32:39.432Z,47.93
2022-09-12T13:35:19.005Z,46.43
2022-09-12T13:37:54.641Z,46.59
2022-09-12T13:40:35.138Z,47.29
2022-09-12T13:43:15.089Z,49.10
2022-09-12T13:45:46.684Z,48.54
2022-09-12T13:48:19.775Z,52.09
2022-09-12T13:50:54.898Z,54.18
2022-09-12T13:53:30.188Z,53.38
2022-09-12T13:56:00.825Z,53.33
2022-09-12T13:58:33.522Z,54.27
2022-09-12T14:01:07.053Z,51.58
2022-09-12T14:03:59.285Z,52.27
2022-09-12T14:06:29.555Z,51.17
2022-09-12T14:09:02.305Z,49.30
2022-09-12T14:11:39.054Z,50.89
2022-09-12T14:14:22.081Z,52.14
2022-09-12T14:16:56.630Z,53.00
2022-09-12T14:19:29.220Z,51.80
2022-09-12T14:22:01.318Z,53.92
2022-09-12T14:24:33.325Z,56.30
2022-09-12T14:27:04.051Z,56.94
2022-09-12T14:29:34.758Z,57.77
2022-09-12T14:32:08.071Z,58.61
2022-09-12T14:34:38.093Z,58.04
2022-09-12T14:37:17.112Z,59.69
2022-09-12T14:39:56.099Z,60.23
2022-09-12T14:42:34.157Z,62.10
2022-09-12T14:45:15.783Z,61.96
2022-09-12T14:47:56.737Z,62.59
2022-09-12T14:50:33.557Z,63.41
2022-09-12T14:53:10.829Z,63.30
2022-09-12T14:55:54.635Z,61.74
2022-09-12T14:59:36.504Z,62.23
2022-09-12T15:02:57.808Z,61.91
2022-09-12T15:05:32.843Z,61.54
2022-09-12T15:08:19.241Z,61.97
2022-09-12T15:10:55.385Z,62.15
2022-09-12T15:13:42.159Z,60.01
2022-09-12T15:16:34.073Z,61.10
2022-09-12T15:19:04.541Z,60.20
2022-09-12T15:25:14.575Z,57.14
2022-09-12T15:27:44.432Z,59.90
2022-09-12T15:30:14.558Z,58.58
2022-09-12T15:32:46.662Z,60.11
2022-09-12T15:35:18.120Z,61.45
2022-09-12T15:37:47.258Z,60.20
2022-09-12T15:40:16.524Z,61.67
2022-09-12T15:42:45.874Z,62.19
2022-09-12T15:45:23.141Z,62.13
2022-09-12T15:47:52.177Z,63.17
2022-09-12T15:50:23.096Z,59.65
2022-09-12T15:52:54.170Z,60.11
2022-09-12T15:55:26.105Z,60.52
2022-09-12T15:57:57.841Z,63.43
2022-09-12T16:00:26.953Z,63.86
2022-09-12T16:02:56.339Z,65.07
2022-09-12T16:05:29.084Z,65.01
2022-09-12T16:07:57.990Z,66.72
2022-09-12T16:10:29.104Z,68.72
2022-09-12T16:13:00.133Z,68.84
2022-09-12T16:15:28.646Z,69.74
2022-09-12T16:17:57.215Z,69.03
2022-09-12T16:20:28.679Z,68.83
2022-09-12T16:22:56.983Z,70.42
2022-09-12T16:25:26.010Z,70.57
2022-09-12T16:28:00.774Z,71.83
2022-09-12T16:30:29.641Z,72.04
2022-09-12T16:32:58.439Z,74.08
2022-09-12T16:35:27.359Z,76.29
2022-09-12T16:37:56.038Z,77.92
2022-09-12T16:40:26.944Z,78.85
2022-09-12T16:42:58.457Z,79.88
2022-09-12T16:45:30.612Z,80.18
2022-09-12T16:48:01.739Z,80.40
2022-09-12T16:50:30.617Z,81.35
2022-09-12T16:53:01.225Z,82.20
2022-09-12T16:55:32.485Z,82.31
2022-09-12T16:58:01.594Z,83.15
2022-09-12T17:00:37.716Z,85.23
2022-09-12T17:03:07.293Z,85.14
2022-09-12T17:05:41.571Z,86.34
2022-09-12T17:08:13.274Z,87.41
2022-09-12T17:10:45.473Z,88.51
2022-09-12T17:13:14.461Z,90.10
2022-09-12T17:15:50.001Z,91.06
2022-09-12T17:18:20.595Z,90.74
2022-09-12T17:20:52.519Z,90.81
2022-09-12T17:23:21.786Z,92.18
2022-09-12T17:25:54.083Z,93.41
2022-09-12T17:28:23.584Z,93.99
2022-09-12T17:31:02.654Z,94.91
2022-09-12T17:33:33.076Z,95.45
2022-09-12T17:36:03.088Z,96.05
2022-09-12T17:38:37.657Z,97.06
2022-09-12T17:41:13.093Z,98.30
2022-09-12T17:43:43.183Z,99.02
2022-09-12T17:46:15.983Z,99.23
2022-09-12T17:48:46.169Z,100.00
2022-09-12T17:51:18.159Z,100.00
2022-09-12T17:53:49.545Z,99.82
2022-09-12T17:56:19.795Z,100.00
2022-09-12T17:58:50.627Z,100.00
2022-09-12T18:01:40.408Z,100.00
2022-09-12T18:04:11.203Z,100.00
2022-09-12T18:06:48.587Z,100.00
2022-09-12T18:09:22.985Z,100.00
2022-09-12T18:11:57.699Z,100.00
2022-09-12T18:14:28.465Z,100.00
2022-09-12T18:17:05.802Z,100.00
2022-09-12T18:19:36.121Z,100.00
2022-09-12T18:22:12.518Z,100.00
2022-09-12T18:24:44.175Z,100.00
2022-09-12T18:27:19.275Z,100.00
2022-09-12T18:30:10.291Z,100.00
2022-09-12T18:32:47.502Z,100.00
2022-09-12T18:35:17.812Z,100.00
2022-09-12T18:37:53.659Z,100.00
2022-09-12T18:40:24.405Z,100.00
2022-09-12T18:43:00.799Z,100.00
2022-09-12T18:45:32.740Z,100.00
2022-09-12T18:48:10.538Z,100.00
2022-09-12T18:50:41.060Z,100.00
2022-09-12T18:53:15.906Z,100.00
2022-09-12T18:55:49.223Z,100.00
2022-09-12T18:58:24.238Z,100.00
2022-09-12T19:00:55.291Z,100.00
2022-09-12T19:03:29.756Z,100.00
2022-09-12T19:06:02.832Z,100.00
2022-09-12T19:08:39.118Z,100.00
2022-09-12T19:11:10.599Z,100.00
2022-09-12T19:13:48.430Z,100.00
2022-09-12T19:16:29.541Z,100.00
2022-09-12T19:19:07.248Z,100.00
2022-09-12T19:21:45.818Z,100.00
2022-09-12T19:28:36.902Z,100.00
2022-09-12T19:31:51.269Z,100.00
2022-09-12T20:14:25.764Z,100.00
2022-09-12T21:23:49.255Z,100.00
2022-09-12T22:32:32.753Z,100.00
2022-09-12T22:43:09.542Z,100.00
2022-09-12T22:46:31.408Z,100.00
2022-09-12T23:12:34.668Z,100.00
2022-09-12T23:15:19.358Z,100.00
2022-09-12T23:17:59.924Z,100.00
2022-09-12T23:20:44.378Z,100.00
2022-09-12T23:23:30.053Z,100.00
2022-09-12T23:26:15.825Z,100.00
2022-09-12T23:29:00.474Z,100.00
2022-09-12T23:31:40.638Z,100.00
2022-09-12T23:34:22.394Z,100.00
2022-09-12T23:36:59.934Z,100.00
2022-09-12T23:39:43.954Z,100.00
2022-09-12T23:42:16.032Z,100.00
2022-09-12T23:44:53.785Z,100.00
2022-09-12T23:47:37.106Z,100.00
2022-09-12T23:50:24.519Z,100.00
2022-09-12T23:53:12.047Z,100.00
2022-09-12T23:55:55.054Z,100.00
2022-09-12T23:58:33.498Z,100.00
